sensor_id;sensor_type;location;lat;lon;timestamp;pressure;altitude;pressure_sealevel;temperature;humidity
55801;BME280;41730;51.960;20.158;2023-01-15T00:01:22;99485.52;;;6.93;62.47
55801;BME280;41730;51.960;20.158;2023-01-15T00:03:55;99482.52;;;7.04;61.97
55801;BME280;41730;51.960;20.158;2023-01-15T00:06:28;99479.57;;;6.93;61.73
55801;BME280;41730;51.960;20.158;2023-01-15T00:08:59;99473.79;;;6.87;61.92
55801;BME280;41730;51.960;20.158;2023-01-15T00:11:31;99469.86;;;6.86;61.93
55801;BME280;41730;51.960;20.158;2023-01-15T00:14:03;99462.00;;;6.86;61.74
55801;BME280;41730;51.960;20.158;2023-01-15T00:16:35;99455.52;;;6.82;61.75
55801;BME280;41730;51.960;20.158;2023-01-15T00:19:10;99451.74;;;6.79;61.69
55801;BME280;41730;51.960;20.158;2023-01-15T00:21:42;99450.03;;;6.96;61.22
55801;BME280;41730;51.960;20.158;2023-01-15T00:24:13;99437.14;;;7.05;60.96
55801;BME280;41730;51.960;20.158;2023-01-15T00:27:03;99423.27;;;7.11;60.85
55801;BME280;41730;51.960;20.158;2023-01-15T00:29:51;99418.33;;;7.08;60.52
55801;BME280;41730;51.960;20.158;2023-01-15T00:32:23;99423.23;;;6.96;60.60
55801;BME280;41730;51.960;20.158;2023-01-15T00:34:57;99424.31;;;6.87;60.53
55801;BME280;41730;51.960;20.158;2023-01-15T00:37:28;99411.05;;;6.87;61.06
55801;BME280;41730;51.960;20.158;2023-01-15T00:40:00;99405.63;;;6.81;60.93
55801;BME280;41730;51.960;20.158;2023-01-15T00:42:31;99400.55;;;6.88;60.77
55801;BME280;41730;51.960;20.158;2023-01-15T00:45:05;99395.40;;;6.97;60.29
55801;BME280;41730;51.960;20.158;2023-01-15T00:47:40;99390.66;;;6.98;59.74
55801;BME280;41730;51.960;20.158;2023-01-15T00:50:14;99393.27;;;6.81;60.33
55801;BME280;41730;51.960;20.158;2023-01-15T00:52:46;99397.94;;;6.68;60.73
55801;BME280;41730;51.960;20.158;2023-01-15T00:55:17;99393.19;;;6.77;60.36
55801;BME280;41730;51.960;20.158;2023-01-15T00:57:49;99395.27;;;6.69;60.76
55801;BME280;41730;51.960;20.158;2023-01-15T01:00:22;99389.12;;;6.58;61.07
55801;BME280;41730;51.960;20.158;2023-01-15T01:02:54;99387.05;;;6.60;60.98
55801;BME280;41730;51.960;20.158;2023-01-15T01:05:26;99377.86;;;6.49;61.01
55801;BME280;41730;51.960;20.158;2023-01-15T01:07:58;99385.27;;;6.61;60.86
55801;BME280;41730;51.960;20.158;2023-01-15T01:10:30;99381.88;;;6.62;60.52
55801;BME280;41730;51.960;20.158;2023-01-15T01:13:01;99367.45;;;6.42;61.03
55801;BME280;41730;51.960;20.158;2023-01-15T01:15:35;99361.79;;;6.41;61.29
55801;BME280;41730;51.960;20.158;2023-01-15T01:18:07;99354.98;;;6.39;61.23
55801;BME280;41730;51.960;20.158;2023-01-15T01:20:38;99350.55;;;6.40;61.22
55801;BME280;41730;51.960;20.158;2023-01-15T01:23:10;99353.77;;;6.43;61.18
55801;BME280;41730;51.960;20.158;2023-01-15T01:25:41;99351.53;;;6.38;61.29
55801;BME280;41730;51.960;20.158;2023-01-15T01:28:13;99351.77;;;6.42;61.18
55801;BME280;41730;51.960;20.158;2023-01-15T01:30:44;99350.30;;;6.58;60.59
55801;BME280;41730;51.960;20.158;2023-01-15T01:33:15;99339.48;;;6.46;60.80
55801;BME280;41730;51.960;20.158;2023-01-15T01:35:50;99332.38;;;6.49;60.74
55801;BME280;41730;51.960;20.158;2023-01-15T01:38:21;99324.48;;;6.48;61.01
55801;BME280;41730;51.960;20.158;2023-01-15T01:40:53;99317.76;;;6.49;60.94
55801;BME280;41730;51.960;20.158;2023-01-15T01:43:27;99305.91;;;6.60;60.54
55801;BME280;41730;51.960;20.158;2023-01-15T01:45:59;99297.04;;;6.56;60.52
55801;BME280;41730;51.960;20.158;2023-01-15T01:48:32;99287.87;;;6.29;61.11
55801;BME280;41730;51.960;20.158;2023-01-15T01:51:04;99293.63;;;6.17;61.88
55801;BME280;41730;51.960;20.158;2023-01-15T01:53:36;99293.93;;;6.27;61.50
55801;BME280;41730;51.960;20.158;2023-01-15T01:56:10;99299.43;;;6.34;60.99
55801;BME280;41730;51.960;20.158;2023-01-15T01:58:50;99296.11;;;6.28;61.13
55801;BME280;41730;51.960;20.158;2023-01-15T02:01:26;99291.03;;;6.24;61.56
55801;BME280;41730;51.960;20.158;2023-01-15T02:03:57;99294.16;;;6.31;61.44
55801;BME280;41730;51.960;20.158;2023-01-15T02:06:29;99299.83;;;6.30;61.32
55801;BME280;41730;51.960;20.158;2023-01-15T02:09:02;99302.27;;;6.18;61.87
55801;BME280;41730;51.960;20.158;2023-01-15T02:11:34;99302.04;;;6.10;62.02
55801;BME280;41730;51.960;20.158;2023-01-15T02:14:11;99299.88;;;6.07;62.49
55801;BME280;41730;51.960;20.158;2023-01-15T02:16:48;99290.88;;;6.19;61.94
55801;BME280;41730;51.960;20.158;2023-01-15T02:19:32;99288.52;;;6.23;62.14
55801;BME280;41730;51.960;20.158;2023-01-15T02:22:18;99287.36;;;6.22;62.07
55801;BME280;41730;51.960;20.158;2023-01-15T02:25:03;99290.14;;;6.15;62.24
55801;BME280;41730;51.960;20.158;2023-01-15T02:27:40;99275.60;;;6.26;62.21
55801;BME280;41730;51.960;20.158;2023-01-15T02:30:19;99252.06;;;6.26;61.39
55801;BME280;41730;51.960;20.158;2023-01-15T02:32:57;99236.45;;;6.23;61.29
55801;BME280;41730;51.960;20.158;2023-01-15T02:35:35;99237.58;;;6.05;62.05
55801;BME280;41730;51.960;20.158;2023-01-15T02:38:11;99236.79;;;6.08;62.05
55801;BME280;41730;51.960;20.158;2023-01-15T02:40:46;99236.67;;;6.09;61.91
55801;BME280;41730;51.960;20.158;2023-01-15T02:43:21;99233.02;;;6.07;61.92
55801;BME280;41730;51.960;20.158;2023-01-15T02:45:55;99227.92;;;6.03;61.88
55801;BME280;41730;51.960;20.158;2023-01-15T02:48:30;99212.17;;;6.05;61.71
55801;BME280;41730;51.960;20.158;2023-01-15T02:51:07;99204.71;;;6.13;61.57
55801;BME280;41730;51.960;20.158;2023-01-15T02:53:42;99208.62;;;6.18;61.61
55801;BME280;41730;51.960;20.158;2023-01-15T02:56:17;99209.52;;;6.29;61.37
55801;BME280;41730;51.960;20.158;2023-01-15T02:58:53;99201.71;;;6.50;60.68
55801;BME280;41730;51.960;20.158;2023-01-15T03:01:30;99201.73;;;6.67;60.37
55801;BME280;41730;51.960;20.158;2023-01-15T03:04:06;99197.52;;;6.76;60.14
55801;BME280;41730;51.960;20.158;2023-01-15T03:06:44;99202.77;;;6.77;59.85
55801;BME280;41730;51.960;20.158;2023-01-15T03:09:19;99199.28;;;6.75;59.58
55801;BME280;41730;51.960;20.158;2023-01-15T03:11:57;99198.23;;;6.63;59.86
55801;BME280;41730;51.960;20.158;2023-01-15T03:14:37;99184.84;;;6.58;60.01
55801;BME280;41730;51.960;20.158;2023-01-15T03:17:15;99181.85;;;6.69;59.91
55801;BME280;41730;51.960;20.158;2023-01-15T03:19:51;99173.17;;;6.71;59.63
55801;BME280;41730;51.960;20.158;2023-01-15T03:22:29;99155.79;;;6.79;59.07
55801;BME280;41730;51.960;20.158;2023-01-15T03:25:04;99158.70;;;6.82;58.92
55801;BME280;41730;51.960;20.158;2023-01-15T03:27:38;99151.04;;;6.90;58.64
55801;BME280;41730;51.960;20.158;2023-01-15T03:30:14;99140.42;;;6.86;58.35
55801;BME280;41730;51.960;20.158;2023-01-15T03:32:46;99143.10;;;6.76;58.70
55801;BME280;41730;51.960;20.158;2023-01-15T03:35:41;99131.64;;;6.64;59.06
55801;BME280;41730;51.960;20.158;2023-01-15T03:38:16;99125.95;;;6.61;59.27
55801;BME280;41730;51.960;20.158;2023-01-15T03:40:58;99127.24;;;6.75;59.23
55801;BME280;41730;51.960;20.158;2023-01-15T03:43:39;99128.54;;;6.90;58.80
55801;BME280;41730;51.960;20.158;2023-01-15T03:46:22;99124.65;;;6.89;58.49
55801;BME280;41730;51.960;20.158;2023-01-15T03:49:03;99111.56;;;6.85;58.54
55801;BME280;41730;51.960;20.158;2023-01-15T03:51:43;99124.02;;;6.69;58.85
55801;BME280;41730;51.960;20.158;2023-01-15T03:54:18;99121.63;;;6.58;59.23
55801;BME280;41730;51.960;20.158;2023-01-15T03:56:56;99123.17;;;6.56;59.49
55801;BME280;41730;51.960;20.158;2023-01-15T03:59:33;99117.08;;;6.77;59.28
55801;BME280;41730;51.960;20.158;2023-01-15T04:02:07;99113.91;;;6.84;58.73
55801;BME280;41730;51.960;20.158;2023-01-15T04:04:42;99121.29;;;6.87;58.79
55801;BME280;41730;51.960;20.158;2023-01-15T04:07:14;99098.96;;;6.84;59.04
55801;BME280;41730;51.960;20.158;2023-01-15T04:09:47;99091.61;;;6.72;58.76
55801;BME280;41730;51.960;20.158;2023-01-15T04:12:18;99076.46;;;6.68;59.22
55801;BME280;41730;51.960;20.158;2023-01-15T04:14:50;99071.27;;;6.69;59.36
55801;BME280;41730;51.960;20.158;2023-01-15T04:17:21;99070.30;;;6.86;59.25
55801;BME280;41730;51.960;20.158;2023-01-15T04:19:53;99072.48;;;6.90;59.15
55801;BME280;41730;51.960;20.158;2023-01-15T04:22:25;99075.46;;;6.89;58.93
55801;BME280;41730;51.960;20.158;2023-01-15T04:24:56;99076.79;;;6.72;59.44
55801;BME280;41730;51.960;20.158;2023-01-15T04:27:28;99077.75;;;6.67;59.62
55801;BME280;41730;51.960;20.158;2023-01-15T04:30:00;99079.63;;;6.63;59.62
55801;BME280;41730;51.960;20.158;2023-01-15T04:32:33;99066.59;;;6.73;59.48
55801;BME280;41730;51.960;20.158;2023-01-15T04:35:09;99069.95;;;6.76;59.17
55801;BME280;41730;51.960;20.158;2023-01-15T04:37:42;99055.77;;;6.81;58.91
55801;BME280;41730;51.960;20.158;2023-01-15T04:40:14;99061.31;;;6.81;59.19
55801;BME280;41730;51.960;20.158;2023-01-15T04:42:59;99050.37;;;6.75;59.24
55801;BME280;41730;51.960;20.158;2023-01-15T04:45:48;99056.25;;;6.88;59.08
55801;BME280;41730;51.960;20.158;2023-01-15T04:48:20;99056.22;;;6.92;59.05
55801;BME280;41730;51.960;20.158;2023-01-15T04:50:51;99049.93;;;7.07;58.66
55801;BME280;41730;51.960;20.158;2023-01-15T04:53:25;99040.10;;;6.99;58.60
55801;BME280;41730;51.960;20.158;2023-01-15T04:56:02;99042.83;;;6.94;58.78
55801;BME280;41730;51.960;20.158;2023-01-15T04:58:34;99038.34;;;6.93;58.85
55801;BME280;41730;51.960;20.158;2023-01-15T05:01:11;99033.86;;;6.95;58.91
55801;BME280;41730;51.960;20.158;2023-01-15T05:03:43;99032.65;;;6.89;59.18
55801;BME280;41730;51.960;20.158;2023-01-15T05:06:15;99035.83;;;6.84;59.16
55801;BME280;41730;51.960;20.158;2023-01-15T05:08:47;99032.17;;;6.82;59.51
55801;BME280;41730;51.960;20.158;2023-01-15T05:11:18;99032.69;;;7.10;58.98
55801;BME280;41730;51.960;20.158;2023-01-15T05:13:50;99037.88;;;7.17;58.66
55801;BME280;41730;51.960;20.158;2023-01-15T05:16:23;99032.36;;;7.02;59.10
55801;BME280;41730;51.960;20.158;2023-01-15T05:18:55;99029.96;;;6.98;59.31
55801;BME280;41730;51.960;20.158;2023-01-15T05:21:29;99021.31;;;6.95;59.62
55801;BME280;41730;51.960;20.158;2023-01-15T05:24:03;99025.65;;;7.03;59.43
55801;BME280;41730;51.960;20.158;2023-01-15T05:26:35;99020.88;;;7.16;58.96
55801;BME280;41730;51.960;20.158;2023-01-15T05:29:07;99014.52;;;7.09;59.04
55801;BME280;41730;51.960;20.158;2023-01-15T05:31:39;99016.71;;;7.16;59.12
55801;BME280;41730;51.960;20.158;2023-01-15T05:34:15;99005.61;;;7.13;59.09
55801;BME280;41730;51.960;20.158;2023-01-15T05:36:46;99001.29;;;7.21;59.17
55801;BME280;41730;51.960;20.158;2023-01-15T05:39:18;98995.35;;;7.29;58.65
55801;BME280;41730;51.960;20.158;2023-01-15T05:41:49;98995.00;;;7.17;58.83
55801;BME280;41730;51.960;20.158;2023-01-15T05:44:23;98993.65;;;7.11;59.14
55801;BME280;41730;51.960;20.158;2023-01-15T05:46:57;98992.10;;;7.12;59.27
55801;BME280;41730;51.960;20.158;2023-01-15T05:49:29;98982.51;;;7.18;59.10
55801;BME280;41730;51.960;20.158;2023-01-15T05:52:02;98980.70;;;7.27;58.59
55801;BME280;41730;51.960;20.158;2023-01-15T05:54:34;98980.29;;;7.20;59.12
55801;BME280;41730;51.960;20.158;2023-01-15T05:57:08;98978.04;;;7.26;59.02
55801;BME280;41730;51.960;20.158;2023-01-15T05:59:42;98970.75;;;7.31;58.88
55801;BME280;41730;51.960;20.158;2023-01-15T06:02:13;98970.14;;;7.41;58.60
55801;BME280;41730;51.960;20.158;2023-01-15T06:04:45;98962.55;;;7.35;58.76
55801;BME280;41730;51.960;20.158;2023-01-15T06:07:16;98956.84;;;7.40;58.77
55801;BME280;41730;51.960;20.158;2023-01-15T06:09:48;98949.11;;;7.51;58.82
55801;BME280;41730;51.960;20.158;2023-01-15T06:12:19;98945.79;;;7.49;58.85
55801;BME280;41730;51.960;20.158;2023-01-15T06:14:51;98948.55;;;7.35;59.14
55801;BME280;41730;51.960;20.158;2023-01-15T06:17:22;98952.60;;;7.25;59.42
55801;BME280;41730;51.960;20.158;2023-01-15T06:19:53;98955.46;;;7.28;59.52
55801;BME280;41730;51.960;20.158;2023-01-15T06:22:25;98954.27;;;7.42;59.32
55801;BME280;41730;51.960;20.158;2023-01-15T06:24:56;98946.27;;;7.34;59.64
55801;BME280;41730;51.960;20.158;2023-01-15T06:27:28;98932.08;;;7.35;59.47
55801;BME280;41730;51.960;20.158;2023-01-15T06:29:59;98937.00;;;7.30;59.92
55801;BME280;41730;51.960;20.158;2023-01-15T06:32:31;98936.68;;;7.28;59.71
55801;BME280;41730;51.960;20.158;2023-01-15T06:35:02;98936.91;;;7.19;60.42
55801;BME280;41730;51.960;20.158;2023-01-15T06:37:34;98935.23;;;7.36;60.03
55801;BME280;41730;51.960;20.158;2023-01-15T06:40:08;98925.83;;;7.34;59.57
55801;BME280;41730;51.960;20.158;2023-01-15T06:42:39;98930.77;;;7.16;60.43
55801;BME280;41730;51.960;20.158;2023-01-15T06:45:31;98932.53;;;7.20;60.83
55801;BME280;41730;51.960;20.158;2023-01-15T06:48:21;98933.27;;;7.27;60.22
55801;BME280;41730;51.960;20.158;2023-01-15T06:50:53;98930.24;;;7.30;60.42
55801;BME280;41730;51.960;20.158;2023-01-15T06:53:25;98931.05;;;7.28;60.75
55801;BME280;41730;51.960;20.158;2023-01-15T06:55:56;98929.39;;;7.43;60.38
55801;BME280;41730;51.960;20.158;2023-01-15T06:58:28;98933.61;;;7.55;60.37
55801;BME280;41730;51.960;20.158;2023-01-15T07:00:59;98930.35;;;7.56;60.66
55801;BME280;41730;51.960;20.158;2023-01-15T07:03:31;98929.46;;;7.67;60.31
55801;BME280;41730;51.960;20.158;2023-01-15T07:06:08;98924.39;;;7.66;60.61
55801;BME280;41730;51.960;20.158;2023-01-15T07:08:40;98923.46;;;7.70;60.73
55801;BME280;41730;51.960;20.158;2023-01-15T07:11:12;98923.27;;;7.80;60.55
55801;BME280;41730;51.960;20.158;2023-01-15T07:13:44;98921.14;;;7.88;60.47
55801;BME280;41730;51.960;20.158;2023-01-15T07:16:16;98920.17;;;7.89;60.66
55801;BME280;41730;51.960;20.158;2023-01-15T07:18:58;98913.04;;;7.88;60.67
55801;BME280;41730;51.960;20.158;2023-01-15T07:21:30;98908.60;;;8.05;60.74
55801;BME280;41730;51.960;20.158;2023-01-15T07:24:04;98904.52;;;8.20;60.42
55801;BME280;41730;51.960;20.158;2023-01-15T07:26:37;98908.83;;;8.21;60.53
55801;BME280;41730;51.960;20.158;2023-01-15T07:29:08;98910.80;;;8.24;60.60
55801;BME280;41730;51.960;20.158;2023-01-15T07:31:40;98911.48;;;8.18;60.77
55801;BME280;41730;51.960;20.158;2023-01-15T07:34:13;98910.75;;;8.10;61.30
55801;BME280;41730;51.960;20.158;2023-01-15T07:36:45;98909.80;;;8.03;61.64
55801;BME280;41730;51.960;20.158;2023-01-15T07:39:16;98910.50;;;7.99;62.03
55801;BME280;41730;51.960;20.158;2023-01-15T07:41:51;98908.11;;;8.23;61.53
55801;BME280;41730;51.960;20.158;2023-01-15T07:44:40;98912.81;;;8.46;61.16
55801;BME280;41730;51.960;20.158;2023-01-15T07:47:29;98916.41;;;8.31;61.71
55801;BME280;41730;51.960;20.158;2023-01-15T07:50:19;98913.92;;;8.13;62.26
55801;BME280;41730;51.960;20.158;2023-01-15T07:52:51;98910.27;;;8.17;62.41
55801;BME280;41730;51.960;20.158;2023-01-15T07:55:24;98909.06;;;8.31;62.43
55801;BME280;41730;51.960;20.158;2023-01-15T07:57:55;98907.30;;;8.49;61.97
55801;BME280;41730;51.960;20.158;2023-01-15T08:00:27;98907.41;;;8.40;62.18
55801;BME280;41730;51.960;20.158;2023-01-15T08:02:59;98905.29;;;8.38;62.58
55801;BME280;41730;51.960;20.158;2023-01-15T08:05:33;98901.68;;;8.30;63.09
55801;BME280;41730;51.960;20.158;2023-01-15T08:08:06;98899.89;;;8.30;63.23
55801;BME280;41730;51.960;20.158;2023-01-15T08:10:44;98898.67;;;8.36;63.31
55801;BME280;41730;51.960;20.158;2023-01-15T08:13:29;98900.04;;;8.23;63.77
55801;BME280;41730;51.960;20.158;2023-01-15T08:16:17;98893.65;;;8.11;64.17
55801;BME280;41730;51.960;20.158;2023-01-15T08:18:49;98894.34;;;8.11;64.40
55801;BME280;41730;51.960;20.158;2023-01-15T08:21:21;98892.41;;;8.00;64.91
55801;BME280;41730;51.960;20.158;2023-01-15T08:23:52;98888.25;;;8.09;64.89
55801;BME280;41730;51.960;20.158;2023-01-15T08:26:24;98886.73;;;8.13;64.45
55801;BME280;41730;51.960;20.158;2023-01-15T08:28:55;98888.58;;;7.97;65.17
55801;BME280;41730;51.960;20.158;2023-01-15T08:31:28;98888.39;;;7.89;65.35
55801;BME280;41730;51.960;20.158;2023-01-15T08:34:00;98883.77;;;7.82;65.84
55801;BME280;41730;51.960;20.158;2023-01-15T08:36:32;98885.13;;;7.86;65.85
55801;BME280;41730;51.960;20.158;2023-01-15T08:39:04;98886.67;;;7.93;65.68
55801;BME280;41730;51.960;20.158;2023-01-15T08:41:36;98885.99;;;7.87;66.03
55801;BME280;41730;51.960;20.158;2023-01-15T08:44:08;98887.54;;;7.93;65.66
55801;BME280;41730;51.960;20.158;2023-01-15T08:46:39;98885.84;;;7.84;65.84
55801;BME280;41730;51.960;20.158;2023-01-15T08:49:11;98882.94;;;7.89;66.13
55801;BME280;41730;51.960;20.158;2023-01-15T08:51:44;98885.80;;;7.89;66.37
55801;BME280;41730;51.960;20.158;2023-01-15T08:54:20;98884.00;;;7.83;66.38
55801;BME280;41730;51.960;20.158;2023-01-15T08:56:51;98885.00;;;7.82;66.47
55801;BME280;41730;51.960;20.158;2023-01-15T08:59:23;98886.51;;;7.77;66.53
55801;BME280;41730;51.960;20.158;2023-01-15T09:01:55;98889.94;;;7.67;67.07
55801;BME280;41730;51.960;20.158;2023-01-15T09:04:29;98892.92;;;7.63;67.29
55801;BME280;41730;51.960;20.158;2023-01-15T09:07:01;98892.94;;;7.66;67.58
55801;BME280;41730;51.960;20.158;2023-01-15T09:09:33;98893.08;;;7.71;67.70
55801;BME280;41730;51.960;20.158;2023-01-15T09:12:06;98894.37;;;7.70;67.72
55801;BME280;41730;51.960;20.158;2023-01-15T09:14:38;98894.02;;;7.62;68.12
55801;BME280;41730;51.960;20.158;2023-01-15T09:17:30;98893.80;;;7.68;68.18
55801;BME280;41730;51.960;20.158;2023-01-15T09:20:02;98895.16;;;7.76;68.25
55801;BME280;41730;51.960;20.158;2023-01-15T09:25:56;98890.70;;;7.83;68.54
55801;BME280;41730;51.960;20.158;2023-01-15T09:28:28;98888.45;;;7.79;68.48
55801;BME280;41730;51.960;20.158;2023-01-15T09:31:00;98887.82;;;7.71;68.61
55801;BME280;41730;51.960;20.158;2023-01-15T09:33:32;98887.11;;;7.50;69.51
55801;BME280;41730;51.960;20.158;2023-01-15T09:36:06;98890.78;;;7.61;69.38
55801;BME280;41730;51.960;20.158;2023-01-15T09:38:44;98888.02;;;7.63;69.36
55801;BME280;41730;51.960;20.158;2023-01-15T09:41:17;98886.04;;;7.67;69.37
55801;BME280;41730;51.960;20.158;2023-01-15T09:44:17;98882.67;;;7.62;69.62
55801;BME280;41730;51.960;20.158;2023-01-15T09:46:59;98880.41;;;7.66;69.56
55801;BME280;41730;51.960;20.158;2023-01-15T09:49:47;98880.08;;;7.66;69.78
55801;BME280;41730;51.960;20.158;2023-01-15T09:52:28;98881.35;;;7.78;69.13
55801;BME280;41730;51.960;20.158;2023-01-15T09:55:12;98875.66;;;7.81;69.33
55801;BME280;41730;51.960;20.158;2023-01-15T09:57:45;98869.20;;;7.97;68.83
55801;BME280;41730;51.960;20.158;2023-01-15T10:00:23;98869.30;;;7.99;68.83
55801;BME280;41730;51.960;20.158;2023-01-15T10:03:00;98861.98;;;8.08;68.75
55801;BME280;41730;51.960;20.158;2023-01-15T10:05:37;98859.64;;;8.07;68.80
55801;BME280;41730;51.960;20.158;2023-01-15T10:08:16;98858.72;;;8.06;68.50
55801;BME280;41730;51.960;20.158;2023-01-15T10:10:54;98854.87;;;8.10;68.59
55801;BME280;41730;51.960;20.158;2023-01-15T10:13:30;98854.27;;;8.05;68.80
55801;BME280;41730;51.960;20.158;2023-01-15T10:16:06;98845.31;;;7.99;69.04
55801;BME280;41730;51.960;20.158;2023-01-15T10:18:39;98839.85;;;8.01;68.92
55801;BME280;41730;51.960;20.158;2023-01-15T10:21:17;98831.98;;;7.99;69.11
55801;BME280;41730;51.960;20.158;2023-01-15T10:24:01;98831.68;;;7.87;69.38
55801;BME280;41730;51.960;20.158;2023-01-15T10:26:37;98824.55;;;7.96;69.18
55801;BME280;41730;51.960;20.158;2023-01-15T10:29:15;98826.66;;;7.85;69.28
55801;BME280;41730;51.960;20.158;2023-01-15T10:31:53;98825.11;;;7.96;69.16
55801;BME280;41730;51.960;20.158;2023-01-15T10:34:58;98820.96;;;7.99;68.91
55801;BME280;41730;51.960;20.158;2023-01-15T10:37:36;98819.35;;;8.09;68.60
55801;BME280;41730;51.960;20.158;2023-01-15T10:40:25;98823.27;;;8.05;68.62
55801;BME280;41730;51.960;20.158;2023-01-15T10:43:09;98816.86;;;8.04;68.69
55801;BME280;41730;51.960;20.158;2023-01-15T10:45:46;98814.66;;;8.14;68.21
55801;BME280;41730;51.960;20.158;2023-01-15T10:48:26;98813.02;;;8.27;67.76
55801;BME280;41730;51.960;20.158;2023-01-15T10:51:02;98811.54;;;8.23;67.76
55801;BME280;41730;51.960;20.158;2023-01-15T10:53:38;98808.91;;;8.23;67.84
55801;BME280;41730;51.960;20.158;2023-01-15T10:56:15;98804.59;;;8.32;67.64
55801;BME280;41730;51.960;20.158;2023-01-15T10:58:54;98799.09;;;8.20;67.73
55801;BME280;41730;51.960;20.158;2023-01-15T11:01:27;98803.21;;;8.10;68.03
55801;BME280;41730;51.960;20.158;2023-01-15T11:03:59;98801.31;;;8.06;68.29
55801;BME280;41730;51.960;20.158;2023-01-15T11:06:32;98800.33;;;8.03;68.25
55801;BME280;41730;51.960;20.158;2023-01-15T11:09:04;98799.20;;;8.15;68.02
55801;BME280;41730;51.960;20.158;2023-01-15T11:11:42;98800.20;;;8.12;67.89
55801;BME280;41730;51.960;20.158;2023-01-15T11:14:39;98797.98;;;8.08;68.14
55801;BME280;41730;51.960;20.158;2023-01-15T11:17:31;98791.32;;;8.19;67.55
55801;BME280;41730;51.960;20.158;2023-01-15T11:20:28;98789.12;;;8.13;67.76
55801;BME280;41730;51.960;20.158;2023-01-15T11:23:07;98792.17;;;8.19;67.38
55801;BME280;41730;51.960;20.158;2023-01-15T11:25:47;98784.40;;;8.24;67.18
55801;BME280;41730;51.960;20.158;2023-01-15T11:28:28;98779.06;;;8.32;66.96
55801;BME280;41730;51.960;20.158;2023-01-15T11:31:00;98775.91;;;8.40;66.63
55801;BME280;41730;51.960;20.158;2023-01-15T11:33:33;98776.09;;;8.40;66.39
55801;BME280;41730;51.960;20.158;2023-01-15T11:36:07;98774.40;;;8.34;66.69
55801;BME280;41730;51.960;20.158;2023-01-15T11:38:50;98774.90;;;8.23;66.86
55801;BME280;41730;51.960;20.158;2023-01-15T11:41:27;98771.77;;;8.34;66.69
55801;BME280;41730;51.960;20.158;2023-01-15T11:44:22;98767.66;;;8.46;66.28
55801;BME280;41730;51.960;20.158;2023-01-15T11:47:13;98769.54;;;8.46;65.95
55801;BME280;41730;51.960;20.158;2023-01-15T11:50:20;98761.68;;;8.53;65.47
55801;BME280;41730;51.960;20.158;2023-01-15T11:53:12;98764.73;;;8.51;65.52
55801;BME280;41730;51.960;20.158;2023-01-15T11:56:01;98765.05;;;8.53;64.74
55801;BME280;41730;51.960;20.158;2023-01-15T11:58:41;98765.60;;;8.45;65.27
55801;BME280;41730;51.960;20.158;2023-01-15T12:01:22;98758.19;;;8.57;65.06
55801;BME280;41730;51.960;20.158;2023-01-15T12:03:55;98751.58;;;8.67;64.69
55801;BME280;41730;51.960;20.158;2023-01-15T12:06:30;98752.08;;;8.59;65.09
55801;BME280;41730;51.960;20.158;2023-01-15T12:09:09;98750.75;;;8.54;65.16
55801;BME280;41730;51.960;20.158;2023-01-15T12:11:59;98752.78;;;8.50;65.09
55801;BME280;41730;51.960;20.158;2023-01-15T12:17:52;98757.05;;;8.40;65.36
55801;BME280;41730;51.960;20.158;2023-01-15T12:20:30;98749.85;;;8.46;65.29
55801;BME280;41730;51.960;20.158;2023-01-15T12:23:16;98753.08;;;8.56;64.99
55801;BME280;41730;51.960;20.158;2023-01-15T12:26:04;98747.88;;;8.53;64.99
55801;BME280;41730;51.960;20.158;2023-01-15T12:28:42;98749.32;;;8.69;64.68
55801;BME280;41730;51.960;20.158;2023-01-15T12:31:21;98743.13;;;8.66;64.43
55801;BME280;41730;51.960;20.158;2023-01-15T12:33:59;98744.17;;;8.58;64.64
55801;BME280;41730;51.960;20.158;2023-01-15T12:36:38;98749.55;;;8.38;64.91
55801;BME280;41730;51.960;20.158;2023-01-15T12:39:17;98744.96;;;8.46;64.89
55801;BME280;41730;51.960;20.158;2023-01-15T12:41:56;98753.04;;;8.40;64.95
55801;BME280;41730;51.960;20.158;2023-01-15T12:45:02;98751.48;;;8.56;64.79
55801;BME280;41730;51.960;20.158;2023-01-15T12:47:41;98747.79;;;8.53;64.74
55801;BME280;41730;51.960;20.158;2023-01-15T12:50:31;98752.98;;;8.44;64.84
55801;BME280;41730;51.960;20.158;2023-01-15T12:53:12;98748.72;;;8.50;64.84
55801;BME280;41730;51.960;20.158;2023-01-15T12:55:49;98748.66;;;8.58;64.33
55801;BME280;41730;51.960;20.158;2023-01-15T12:58:32;98748.12;;;8.49;64.36
55801;BME280;41730;51.960;20.158;2023-01-15T13:01:09;98747.04;;;8.44;64.53
55801;BME280;41730;51.960;20.158;2023-01-15T13:04:04;98750.81;;;8.57;64.28
55801;BME280;41730;51.960;20.158;2023-01-15T13:06:42;98751.42;;;8.60;64.07
55801;BME280;41730;51.960;20.158;2023-01-15T13:09:24;98754.42;;;8.51;64.38
55801;BME280;41730;51.960;20.158;2023-01-15T13:11:59;98762.55;;;8.57;64.19
55801;BME280;41730;51.960;20.158;2023-01-15T13:14:31;98759.36;;;8.57;64.04
55801;BME280;41730;51.960;20.158;2023-01-15T13:17:07;98758.00;;;8.52;64.18
55801;BME280;41730;51.960;20.158;2023-01-15T13:19:47;98760.42;;;8.48;64.29
55801;BME280;41730;51.960;20.158;2023-01-15T13:22:23;98761.98;;;8.58;64.05
55801;BME280;41730;51.960;20.158;2023-01-15T13:25:17;98761.36;;;8.59;64.08
55801;BME280;41730;51.960;20.158;2023-01-15T13:31:01;98765.20;;;8.73;63.66
55801;BME280;41730;51.960;20.158;2023-01-15T13:33:41;98771.16;;;8.89;63.08
55801;BME280;41730;51.960;20.158;2023-01-15T13:36:17;98769.08;;;8.69;63.45
55801;BME280;41730;51.960;20.158;2023-01-15T13:38:54;98769.73;;;8.64;63.79
55801;BME280;41730;51.960;20.158;2023-01-15T13:41:31;98770.19;;;8.70;63.73
55801;BME280;41730;51.960;20.158;2023-01-15T13:44:22;98770.85;;;8.70;63.56
55801;BME280;41730;51.960;20.158;2023-01-15T13:47:03;98776.00;;;8.75;63.55
55801;BME280;41730;51.960;20.158;2023-01-15T13:49:44;98772.13;;;8.73;63.55
55801;BME280;41730;51.960;20.158;2023-01-15T13:52:25;98782.13;;;8.71;63.62
55801;BME280;41730;51.960;20.158;2023-01-15T13:55:06;98790.14;;;8.57;63.97
55801;BME280;41730;51.960;20.158;2023-01-15T13:57:41;98795.50;;;8.51;64.06